sensor_id;sensor_type;location;lat;lon;timestamp;P1;durP1;ratioP1;P2;durP2;ratioP2
10588;SDS011;5342;55.676;13.346;2022-08-04T00:02:24;6.70;;;3.90;;
10588;SDS011;5342;55.676;13.346;2022-08-04T00:04:59;4.70;;;4.10;;
10588;SDS011;5342;55.676;13.346;2022-08-04T00:07:39;4.93;;;3.67;;
10588;SDS011;5342;55.676;13.346;2022-08-04T00:10:07;7.13;;;4.10;;
10588;SDS011;5342;55.676;13.346;2022-08-04T00:12:35;4.60;;;4.00;;
10588;SDS011;5342;55.676;13.346;2022-08-04T00:15:03;6.33;;;4.73;;
10588;SDS011;5342;55.676;13.346;2022-08-04T00:17:31;7.17;;;4.57;;
10588;SDS011;5342;55.676;13.346;2022-08-04T00:20:02;6.27;;;4.70;;
10588;SDS011;5342;55.676;13.346;2022-08-04T00:22:30;6.73;;;5.17;;
10588;SDS011;5342;55.676;13.346;2022-08-04T00:25:00;8.43;;;5.23;;
10588;SDS011;5342;55.676;13.346;2022-08-04T00:27:28;9.80;;;5.80;;
10588;SDS011;5342;55.676;13.346;2022-08-04T00:29:55;6.53;;;5.00;;
10588;SDS011;5342;55.676;13.346;2022-08-04T00:32:22;5.67;;;5.07;;
10588;SDS011;5342;55.676;13.346;2022-08-04T00:34:49;7.30;;;4.77;;
10588;SDS011;5342;55.676;13.346;2022-08-04T00:37:15;8.47;;;5.37;;
10588;SDS011;5342;55.676;13.346;2022-08-04T00:39:42;6.77;;;5.27;;
10588;SDS011;5342;55.676;13.346;2022-08-04T00:42:19;8.50;;;5.73;;
10588;SDS011;5342;55.676;13.346;2022-08-04T00:47:35;9.03;;;6.07;;
10588;SDS011;5342;55.676;13.346;2022-08-04T00:52:43;7.73;;;6.93;;
10588;SDS011;5342;55.676;13.346;2022-08-04T01:00:24;7.40;;;6.60;;
10588;SDS011;5342;55.676;13.346;2022-08-04T01:05:33;8.13;;;6.13;;
10588;SDS011;5342;55.676;13.346;2022-08-04T01:15:53;6.57;;;6.00;;
10588;SDS011;5342;55.676;13.346;2022-08-04T01:18:29;8.00;;;5.57;;
10588;SDS011;5342;55.676;13.346;2022-08-04T01:26:17;7.23;;;5.30;;
10588;SDS011;5342;55.676;13.346;2022-08-04T01:31:34;6.17;;;5.53;;
10588;SDS011;5342;55.676;13.346;2022-08-04T01:34:04;6.93;;;6.17;;
10588;SDS011;5342;55.676;13.346;2022-08-04T01:36:32;6.93;;;5.73;;
10588;SDS011;5342;55.676;13.346;2022-08-04T01:39:02;7.10;;;5.10;;
10588;SDS011;5342;55.676;13.346;2022-08-04T01:41:52;6.23;;;5.30;;
10588;SDS011;5342;55.676;13.346;2022-08-04T01:44:18;7.10;;;5.60;;
10588;SDS011;5342;55.676;13.346;2022-08-04T01:46:47;9.63;;;5.87;;
10588;SDS011;5342;55.676;13.346;2022-08-04T01:49:15;7.47;;;5.23;;
10588;SDS011;5342;55.676;13.346;2022-08-04T01:51:42;6.47;;;5.10;;
10588;SDS011;5342;55.676;13.346;2022-08-04T01:54:09;9.03;;;5.93;;
10588;SDS011;5342;55.676;13.346;2022-08-04T01:56:37;6.33;;;5.73;;
10588;SDS011;5342;55.676;13.346;2022-08-04T01:59:04;8.20;;;5.50;;
10588;SDS011;5342;55.676;13.346;2022-08-04T02:01:33;8.27;;;5.97;;
10588;SDS011;5342;55.676;13.346;2022-08-04T02:04:00;6.13;;;5.37;;
10588;SDS011;5342;55.676;13.346;2022-08-04T02:09:11;7.07;;;6.13;;
10588;SDS011;5342;55.676;13.346;2022-08-04T02:11:40;7.23;;;6.03;;
10588;SDS011;5342;55.676;13.346;2022-08-04T02:14:27;6.23;;;5.70;;
10588;SDS011;5342;55.676;13.346;2022-08-04T02:17:11;7.67;;;6.07;;
10588;SDS011;5342;55.676;13.346;2022-08-04T02:19:51;8.07;;;7.00;;
10588;SDS011;5342;55.676;13.346;2022-08-04T02:22:21;6.77;;;6.03;;
10588;SDS011;5342;55.676;13.346;2022-08-04T02:24:55;8.43;;;6.30;;
10588;SDS011;5342;55.676;13.346;2022-08-04T02:27:24;6.73;;;5.87;;
10588;SDS011;5342;55.676;13.346;2022-08-04T02:29:56;7.27;;;6.00;;
10588;SDS011;5342;55.676;13.346;2022-08-04T02:32:25;8.43;;;6.10;;
10588;SDS011;5342;55.676;13.346;2022-08-04T02:35:11;7.40;;;5.70;;
10588;SDS011;5342;55.676;13.346;2022-08-04T02:37:41;6.43;;;5.93;;
10588;SDS011;5342;55.676;13.346;2022-08-04T02:40:11;7.20;;;6.50;;
10588;SDS011;5342;55.676;13.346;2022-08-04T02:42:37;8.37;;;6.57;;
10588;SDS011;5342;55.676;13.346;2022-08-04T02:45:04;6.33;;;5.73;;
10588;SDS011;5342;55.676;13.346;2022-08-04T02:47:32;6.30;;;5.70;;
10588;SDS011;5342;55.676;13.346;2022-08-04T02:49:58;7.87;;;5.63;;
10588;SDS011;5342;55.676;13.346;2022-08-04T02:52:26;5.63;;;5.13;;
10588;SDS011;5342;55.676;13.346;2022-08-04T02:54:55;6.50;;;5.57;;
10588;SDS011;5342;55.676;13.346;2022-08-04T02:57:26;6.30;;;5.67;;
10588;SDS011;5342;55.676;13.346;2022-08-04T03:02:21;8.37;;;5.23;;
10588;SDS011;5342;55.676;13.346;2022-08-04T03:04:56;6.77;;;5.07;;
10588;SDS011;5342;55.676;13.346;2022-08-04T03:12:34;6.20;;;5.60;;
10588;SDS011;5342;55.676;13.346;2022-08-04T03:25:48;7.13;;;5.90;;
10588;SDS011;5342;55.676;13.346;2022-08-04T03:33:38;5.83;;;4.83;;
10588;SDS011;5342;55.676;13.346;2022-08-04T04:04:42;8.37;;;5.20;;
10588;SDS011;5342;55.676;13.346;2022-08-04T04:07:35;6.93;;;4.47;;
10588;SDS011;5342;55.676;13.346;2022-08-04T04:28:54;4.73;;;4.27;;
10588;SDS011;5342;55.676;13.346;2022-08-04T04:31:37;4.70;;;4.17;;
10588;SDS011;5342;55.676;13.346;2022-08-04T04:34:11;4.33;;;3.93;;
10588;SDS011;5342;55.676;13.346;2022-08-04T04:41:47;5.67;;;4.43;;
10588;SDS011;5342;55.676;13.346;2022-08-04T04:46:57;6.47;;;4.23;;
10588;SDS011;5342;55.676;13.346;2022-08-04T04:57:17;4.50;;;4.10;;
10588;SDS011;5342;55.676;13.346;2022-08-04T04:59:49;6.00;;;4.17;;
10588;SDS011;5342;55.676;13.346;2022-08-04T05:05:05;7.03;;;3.90;;
10588;SDS011;5342;55.676;13.346;2022-08-04T05:15:13;4.67;;;3.90;;
10588;SDS011;5342;55.676;13.346;2022-08-04T05:17:42;7.37;;;3.47;;
10588;SDS011;5342;55.676;13.346;2022-08-04T05:22:47;4.60;;;3.40;;
10588;SDS011;5342;55.676;13.346;2022-08-04T05:25:20;4.80;;;3.73;;
10588;SDS011;5342;55.676;13.346;2022-08-04T05:28:02;4.53;;;3.47;;
10588;SDS011;5342;55.676;13.346;2022-08-04T05:30:31;4.33;;;3.53;;
10588;SDS011;5342;55.676;13.346;2022-08-04T05:33:04;4.43;;;3.90;;
10588;SDS011;5342;55.676;13.346;2022-08-04T05:35:33;6.27;;;4.20;;
10588;SDS011;5342;55.676;13.346;2022-08-04T05:38:01;642.40;;;72.87;;
10588;SDS011;5342;55.676;13.346;2022-08-04T05:40:28;1036.60;;;478.10;;
10588;SDS011;5342;55.676;13.346;2022-08-04T05:42:55;1569.10;;;743.17;;
10588;SDS011;5342;55.676;13.346;2022-08-04T05:45:22;646.67;;;207.43;;
10588;SDS011;5342;55.676;13.346;2022-08-04T05:47:50;1141.50;;;381.00;;
10588;SDS011;5342;55.676;13.346;2022-08-04T05:50:18;7.13;;;3.70;;
10588;SDS011;5342;55.676;13.346;2022-08-04T05:52:45;7.00;;;4.00;;
10588;SDS011;5342;55.676;13.346;2022-08-04T05:55:12;5.00;;;3.63;;
10588;SDS011;5342;55.676;13.346;2022-08-04T05:57:39;4.87;;;3.70;;
10588;SDS011;5342;55.676;13.346;2022-08-04T06:00:06;4.27;;;3.63;;
10588;SDS011;5342;55.676;13.346;2022-08-04T06:02:33;5.10;;;3.73;;
10588;SDS011;5342;55.676;13.346;2022-08-04T06:05:00;4.80;;;3.43;;
10588;SDS011;5342;55.676;13.346;2022-08-04T06:07:27;5.30;;;3.57;;
10588;SDS011;5342;55.676;13.346;2022-08-04T06:09:54;7.63;;;3.90;;
10588;SDS011;5342;55.676;13.346;2022-08-04T06:12:22;7.63;;;4.23;;
10588;SDS011;5342;55.676;13.346;2022-08-04T06:14:51;8.57;;;3.90;;
10588;SDS011;5342;55.676;13.346;2022-08-04T06:17:33;5.80;;;3.20;;
10588;SDS011;5342;55.676;13.346;2022-08-04T06:20:02;7.40;;;3.27;;
10588;SDS011;5342;55.676;13.346;2022-08-04T06:22:29;5.90;;;3.37;;
10588;SDS011;5342;55.676;13.346;2022-08-04T06:24:57;5.43;;;3.50;;
10588;SDS011;5342;55.676;13.346;2022-08-04T06:27:25;6.50;;;3.23;;
10588;SDS011;5342;55.676;13.346;2022-08-04T06:29:53;56.50;;;7.00;;
10588;SDS011;5342;55.676;13.346;2022-08-04T06:32:22;6.20;;;3.40;;
10588;SDS011;5342;55.676;13.346;2022-08-04T06:34:54;3.73;;;2.97;;
10588;SDS011;5342;55.676;13.346;2022-08-04T06:37:22;5.63;;;3.30;;
10588;SDS011;5342;55.676;13.346;2022-08-04T06:39:49;5.10;;;3.67;;
10588;SDS011;5342;55.676;13.346;2022-08-04T06:42:17;9.03;;;3.60;;
10588;SDS011;5342;55.676;13.346;2022-08-04T06:44:45;5.07;;;3.73;;
10588;SDS011;5342;55.676;13.346;2022-08-04T06:47:15;5.37;;;4.03;;
10588;SDS011;5342;55.676;13.346;2022-08-04T06:49:47;9.00;;;3.63;;
10588;SDS011;5342;55.676;13.346;2022-08-04T06:52:15;4.03;;;3.63;;
10588;SDS011;5342;55.676;13.346;2022-08-04T06:54:45;6.23;;;3.40;;
10588;SDS011;5342;55.676;13.346;2022-08-04T06:57:12;5.53;;;3.67;;
10588;SDS011;5342;55.676;13.346;2022-08-04T06:59:41;3.37;;;3.07;;
10588;SDS011;5342;55.676;13.346;2022-08-04T07:02:10;6.03;;;2.87;;
10588;SDS011;5342;55.676;13.346;2022-08-04T07:04:37;5.20;;;3.60;;
10588;SDS011;5342;55.676;13.346;2022-08-04T07:07:04;3.90;;;2.80;;
10588;SDS011;5342;55.676;13.346;2022-08-04T07:09:31;7.67;;;3.43;;
10588;SDS011;5342;55.676;13.346;2022-08-04T07:11:58;4.50;;;2.73;;
10588;SDS011;5342;55.676;13.346;2022-08-04T07:14:24;8.00;;;2.50;;
10588;SDS011;5342;55.676;13.346;2022-08-04T07:16:51;3.10;;;2.00;;
10588;SDS011;5342;55.676;13.346;2022-08-04T07:19:18;2.20;;;2.00;;
10588;SDS011;5342;55.676;13.346;2022-08-04T07:21:45;2.07;;;1.83;;
10588;SDS011;5342;55.676;13.346;2022-08-04T07:24:12;4.73;;;1.93;;
10588;SDS011;5342;55.676;13.346;2022-08-04T07:26:38;7.67;;;2.00;;
10588;SDS011;5342;55.676;13.346;2022-08-04T07:29:05;4.10;;;2.00;;
10588;SDS011;5342;55.676;13.346;2022-08-04T07:31:31;7.23;;;2.43;;
10588;SDS011;5342;55.676;13.346;2022-08-04T07:33:59;3.57;;;2.17;;
10588;SDS011;5342;55.676;13.346;2022-08-04T07:36:26;7.37;;;1.80;;
10588;SDS011;5342;55.676;13.346;2022-08-04T07:38:53;5.43;;;1.80;;
10588;SDS011;5342;55.676;13.346;2022-08-04T07:41:23;2.33;;;1.87;;
10588;SDS011;5342;55.676;13.346;2022-08-04T07:43:49;6.67;;;1.93;;
10588;SDS011;5342;55.676;13.346;2022-08-04T07:46:16;5.27;;;2.07;;
10588;SDS011;5342;55.676;13.346;2022-08-04T07:48:43;3.47;;;1.80;;
10588;SDS011;5342;55.676;13.346;2022-08-04T07:51:10;2.40;;;1.37;;
10588;SDS011;5342;55.676;13.346;2022-08-04T07:53:37;1.23;;;1.10;;
10588;SDS011;5342;55.676;13.346;2022-08-04T07:56:05;1.33;;;1.20;;
10588;SDS011;5342;55.676;13.346;2022-08-04T07:58:32;7.20;;;1.80;;
10588;SDS011;5342;55.676;13.346;2022-08-04T08:00:58;4.00;;;1.77;;
10588;SDS011;5342;55.676;13.346;2022-08-04T08:03:25;2.23;;;1.97;;
10588;SDS011;5342;55.676;13.346;2022-08-04T08:05:52;4.87;;;1.43;;
10588;SDS011;5342;55.676;13.346;2022-08-04T08:08:19;5.17;;;1.47;;
10588;SDS011;5342;55.676;13.346;2022-08-04T08:10:46;6.30;;;1.50;;
10588;SDS011;5342;55.676;13.346;2022-08-04T08:13:14;3.80;;;1.63;;
10588;SDS011;5342;55.676;13.346;2022-08-04T08:15:43;2.00;;;1.13;;
10588;SDS011;5342;55.676;13.346;2022-08-04T08:18:10;2.00;;;1.57;;
10588;SDS011;5342;55.676;13.346;2022-08-04T08:20:37;4.40;;;1.63;;
10588;SDS011;5342;55.676;13.346;2022-08-04T08:23:03;0.93;;;0.90;;
10588;SDS011;5342;55.676;13.346;2022-08-04T08:25:30;4.20;;;1.37;;
10588;SDS011;5342;55.676;13.346;2022-08-04T08:27:57;7.57;;;2.27;;
10588;SDS011;5342;55.676;13.346;2022-08-04T08:30:24;2.20;;;1.40;;
10588;SDS011;5342;55.676;13.346;2022-08-04T08:32:51;4.87;;;1.90;;
10588;SDS011;5342;55.676;13.346;2022-08-04T08:35:17;2.40;;;1.33;;
10588;SDS011;5342;55.676;13.346;2022-08-04T08:37:46;1.67;;;1.47;;
10588;SDS011;5342;55.676;13.346;2022-08-04T08:40:32;5.43;;;1.67;;
10588;SDS011;5342;55.676;13.346;2022-08-04T08:56:42;5.13;;;2.43;;
10588;SDS011;5342;55.676;13.346;2022-08-04T09:09:33;5.20;;;2.57;;
10588;SDS011;5342;55.676;13.346;2022-08-04T09:15:03;4.00;;;2.53;;
10588;SDS011;5342;55.676;13.346;2022-08-04T09:17:47;5.17;;;2.40;;
10588;SDS011;5342;55.676;13.346;2022-08-04T09:20:21;3.40;;;2.43;;
10588;SDS011;5342;55.676;13.346;2022-08-04T09:25:23;3.73;;;2.93;;
10588;SDS011;5342;55.676;13.346;2022-08-04T09:27:52;5.83;;;2.43;;
10588;SDS011;5342;55.676;13.346;2022-08-04T09:30:28;2.93;;;2.23;;
10588;SDS011;5342;55.676;13.346;2022-08-04T09:48:15;2.70;;;2.07;;
10588;SDS011;5342;55.676;13.346;2022-08-04T09:50:43;4.73;;;2.73;;
10588;SDS011;5342;55.676;13.346;2022-08-04T10:01:05;6.50;;;2.63;;
10588;SDS011;5342;55.676;13.346;2022-08-04T10:03:41;4.07;;;2.73;;
10588;SDS011;5342;55.676;13.346;2022-08-04T10:19:25;3.60;;;2.57;;
10588;SDS011;5342;55.676;13.346;2022-08-04T10:22:02;6.07;;;2.73;;
10588;SDS011;5342;55.676;13.346;2022-08-04T10:24:38;4.03;;;2.43;;
10588;SDS011;5342;55.676;13.346;2022-08-04T10:27:13;4.30;;;2.17;;
10588;SDS011;5342;55.676;13.346;2022-08-04T10:29:42;2.93;;;2.50;;
10588;SDS011;5342;55.676;13.346;2022-08-04T10:32:20;6.83;;;2.70;;
10588;SDS011;5342;55.676;13.346;2022-08-04T10:42:31;5.53;;;2.73;;
10588;SDS011;5342;55.676;13.346;2022-08-04T10:47:30;6.47;;;2.40;;
10588;SDS011;5342;55.676;13.346;2022-08-04T10:49:59;5.13;;;2.63;;
10588;SDS011;5342;55.676;13.346;2022-08-04T10:52:32;3.20;;;2.10;;
10588;SDS011;5342;55.676;13.346;2022-08-04T10:57:30;4.07;;;2.50;;
10588;SDS011;5342;55.676;13.346;2022-08-04T11:00:00;5.70;;;2.40;;
10588;SDS011;5342;55.676;13.346;2022-08-04T11:02:35;6.07;;;2.40;;
10588;SDS011;5342;55.676;13.346;2022-08-04T11:07:39;5.10;;;2.60;;
10588;SDS011;5342;55.676;13.346;2022-08-04T11:10:06;3.73;;;2.77;;
10588;SDS011;5342;55.676;13.346;2022-08-04T11:12:33;4.77;;;2.67;;
10588;SDS011;5342;55.676;13.346;2022-08-04T11:15:03;4.83;;;3.00;;
10588;SDS011;5342;55.676;13.346;2022-08-04T11:17:34;5.47;;;2.60;;
10588;SDS011;5342;55.676;13.346;2022-08-04T11:20:11;6.10;;;2.77;;
10588;SDS011;5342;55.676;13.346;2022-08-04T11:22:54;4.03;;;3.00;;
10588;SDS011;5342;55.676;13.346;2022-08-04T11:25:24;6.27;;;3.03;;
10588;SDS011;5342;55.676;13.346;2022-08-04T11:30:19;4.73;;;3.57;;
10588;SDS011;5342;55.676;13.346;2022-08-04T11:32:57;5.50;;;3.50;;
10588;SDS011;5342;55.676;13.346;2022-08-04T11:35:31;6.20;;;3.37;;
10588;SDS011;5342;55.676;13.346;2022-08-04T11:38:10;5.23;;;3.47;;
10588;SDS011;5342;55.676;13.346;2022-08-04T11:40:41;7.67;;;3.37;;
10588;SDS011;5342;55.676;13.346;2022-08-04T11:46:14;6.33;;;2.90;;
10588;SDS011;5342;55.676;13.346;2022-08-04T11:51:29;4.57;;;3.30;;
10588;SDS011;5342;55.676;13.346;2022-08-04T11:53:56;5.13;;;2.90;;
10588;SDS011;5342;55.676;13.346;2022-08-04T11:56:23;6.90;;;3.30;;
10588;SDS011;5342;55.676;13.346;2022-08-04T11:58:50;4.30;;;3.50;;
10588;SDS011;5342;55.676;13.346;2022-08-04T12:03:58;6.20;;;2.93;;
10588;SDS011;5342;55.676;13.346;2022-08-04T12:14:16;6.47;;;2.70;;
10588;SDS011;5342;55.676;13.346;2022-08-04T12:17:04;5.37;;;2.60;;
10588;SDS011;5342;55.676;13.346;2022-08-04T12:22:02;3.97;;;2.40;;
10588;SDS011;5342;55.676;13.346;2022-08-04T12:24:32;7.13;;;2.67;;
10588;SDS011;5342;55.676;13.346;2022-08-04T12:27:14;8.23;;;2.87;;
10588;SDS011;5342;55.676;13.346;2022-08-04T12:29:41;5.00;;;2.57;;
10588;SDS011;5342;55.676;13.346;2022-08-04T12:32:19;6.83;;;2.63;;
10588;SDS011;5342;55.676;13.346;2022-08-04T12:35:20;5.27;;;2.50;;
10588;SDS011;5342;55.676;13.346;2022-08-04T12:40:13;4.70;;;2.50;;
10588;SDS011;5342;55.676;13.346;2022-08-04T12:42:43;6.30;;;2.70;;
10588;SDS011;5342;55.676;13.346;2022-08-04T12:45:10;3.67;;;2.83;;
10588;SDS011;5342;55.676;13.346;2022-08-04T12:47:39;5.37;;;3.00;;
10588;SDS011;5342;55.676;13.346;2022-08-04T12:50:06;7.53;;;2.80;;
10588;SDS011;5342;55.676;13.346;2022-08-04T12:52:44;4.97;;;2.70;;
10588;SDS011;5342;55.676;13.346;2022-08-04T12:55:12;4.40;;;2.50;;
10588;SDS011;5342;55.676;13.346;2022-08-04T12:57:40;6.37;;;3.30;;
10588;SDS011;5342;55.676;13.346;2022-08-04T13:00:08;4.00;;;2.70;;
10588;SDS011;5342;55.676;13.346;2022-08-04T13:02:40;8.67;;;2.83;;
10588;SDS011;5342;55.676;13.346;2022-08-04T13:05:08;5.53;;;2.90;;
10588;SDS011;5342;55.676;13.346;2022-08-04T13:07:42;3.93;;;2.33;;
10588;SDS011;5342;55.676;13.346;2022-08-04T13:10:12;6.07;;;3.17;;
10588;SDS011;5342;55.676;13.346;2022-08-04T13:12:39;5.70;;;2.67;;
10588;SDS011;5342;55.676;13.346;2022-08-04T13:15:11;3.63;;;2.90;;
10588;SDS011;5342;55.676;13.346;2022-08-04T13:20:25;5.37;;;2.67;;
10588;SDS011;5342;55.676;13.346;2022-08-04T13:22:56;5.47;;;2.30;;
10588;SDS011;5342;55.676;13.346;2022-08-04T13:25:27;4.63;;;2.77;;
10588;SDS011;5342;55.676;13.346;2022-08-04T13:27:54;5.13;;;2.33;;
10588;SDS011;5342;55.676;13.346;2022-08-04T13:30:21;7.90;;;2.83;;
10588;SDS011;5342;55.676;13.346;2022-08-04T13:32:54;4.97;;;2.42;;
10588;SDS011;5342;55.676;13.346;2022-08-04T13:35:20;3.60;;;2.70;;
10588;SDS011;5342;55.676;13.346;2022-08-04T13:37:47;6.30;;;2.30;;
10588;SDS011;5342;55.676;13.346;2022-08-04T13:40:14;4.57;;;2.77;;
10588;SDS011;5342;55.676;13.346;2022-08-04T13:42:40;6.37;;;2.87;;
10588;SDS011;5342;55.676;13.346;2022-08-04T13:45:11;5.07;;;2.57;;
10588;SDS011;5342;55.676;13.346;2022-08-04T13:47:38;4.27;;;2.40;;
10588;SDS011;5342;55.676;13.346;2022-08-04T13:52:41;5.07;;;3.10;;
10588;SDS011;5342;55.676;13.346;2022-08-04T13:55:21;6.23;;;2.80;;
10588;SDS011;5342;55.676;13.346;2022-08-04T13:57:49;7.80;;;2.70;;
10588;SDS011;5342;55.676;13.346;2022-08-04T14:00:18;6.90;;;2.80;;
10588;SDS011;5342;55.676;13.346;2022-08-04T14:02:48;4.23;;;2.60;;
10588;SDS011;5342;55.676;13.346;2022-08-04T14:05:20;3.60;;;2.30;;
10588;SDS011;5342;55.676;13.346;2022-08-04T14:07:52;3.30;;;2.63;;
10588;SDS011;5342;55.676;13.346;2022-08-04T14:10:20;5.93;;;2.40;;
10588;SDS011;5342;55.676;13.346;2022-08-04T14:12:48;7.37;;;2.80;;
10588;SDS011;5342;55.676;13.346;2022-08-04T14:20:56;4.07;;;2.40;;
10588;SDS011;5342;55.676;13.346;2022-08-04T14:23:23;5.75;;;2.42;;
10588;SDS011;5342;55.676;13.346;2022-08-04T14:25:50;3.35;;;2.30;;
10588;SDS011;5342;55.676;13.346;2022-08-04T14:28:27;5.03;;;2.20;;
10588;SDS011;5342;55.676;13.346;2022-08-04T14:31:16;4.95;;;2.17;;
10588;SDS011;5342;55.676;13.346;2022-08-04T14:33:41;3.47;;;1.77;;
10588;SDS011;5342;55.676;13.346;2022-08-04T14:36:08;3.53;;;2.13;;
10588;SDS011;5342;55.676;13.346;2022-08-04T14:38:51;6.75;;;2.38;;
10588;SDS011;5342;55.676;13.346;2022-08-04T14:41:20;3.25;;;2.13;;
10588;SDS011;5342;55.676;13.346;2022-08-04T14:43:48;2.60;;;2.10;;
10588;SDS011;5342;55.676;13.346;2022-08-04T14:46:15;4.22;;;1.83;;
10588;SDS011;5342;55.676;13.346;2022-08-04T14:51:45;3.92;;;2.20;;
10588;SDS011;5342;55.676;13.346;2022-08-04T14:54:23;6.75;;;2.33;;
10588;SDS011;5342;55.676;13.346;2022-08-04T14:56:51;7.25;;;2.70;;
10588;SDS011;5342;55.676;13.346;2022-08-04T14:59:19;5.90;;;2.28;;
10588;SDS011;5342;55.676;13.346;2022-08-04T15:01:45;3.47;;;2.00;;
10588;SDS011;5342;55.676;13.346;2022-08-04T15:04:13;4.80;;;2.38;;
10588;SDS011;5342;55.676;13.346;2022-08-04T15:06:40;5.75;;;2.40;;
10588;SDS011;5342;55.676;13.346;2022-08-04T15:09:08;5.25;;;2.13;;
10588;SDS011;5342;55.676;13.346;2022-08-04T15:11:35;4.75;;;2.22;;
10588;SDS011;5342;55.676;13.346;2022-08-04T15:14:03;3.55;;;2.10;;
10588;SDS011;5342;55.676;13.346;2022-08-04T15:16:30;3.85;;;2.45;;
10588;SDS011;5342;55.676;13.346;2022-08-04T15:18:57;5.25;;;2.33;;
10588;SDS011;5342;55.676;13.346;2022-08-04T15:21:25;4.18;;;2.35;;
10588;SDS011;5342;55.676;13.346;2022-08-04T15:23:56;5.82;;;2.58;;
10588;SDS011;5342;55.676;13.346;2022-08-04T15:26:30;4.35;;;2.35;;
10588;SDS011;5342;55.676;13.346;2022-08-04T15:29:05;3.67;;;2.25;;
10588;SDS011;5342;55.676;13.346;2022-08-04T15:31:34;2.50;;;2.00;;
10588;SDS011;5342;55.676;13.346;2022-08-04T15:34:04;3.90;;;2.08;;
10588;SDS011;5342;55.676;13.346;2022-08-04T15:39:02;4.15;;;2.20;;
10588;SDS011;5342;55.676;13.346;2022-08-04T15:41:34;3.63;;;2.40;;
10588;SDS011;5342;55.676;13.346;2022-08-04T15:49:20;4.82;;;2.35;;
10588;SDS011;5342;55.676;13.346;2022-08-04T15:52:00;3.47;;;2.33;;
10588;SDS011;5342;55.676;13.346;2022-08-04T15:54:27;4.43;;;2.40;;
10588;SDS011;5342;55.676;13.346;2022-08-04T15:56:54;3.65;;;2.75;;
10588;SDS011;5342;55.676;13.346;2022-08-04T16:04:56;3.95;;;3.03;;
10588;SDS011;5342;55.676;13.346;2022-08-04T16:08:12;4.43;;;3.15;;
10588;SDS011;5342;55.676;13.346;2022-08-04T16:13:07;5.10;;;2.95;;
10588;SDS011;5342;55.676;13.346;2022-08-04T16:18:03;6.20;;;2.58;;
10588;SDS011;5342;55.676;13.346;2022-08-04T16:20:30;4.47;;;2.65;;
10588;SDS011;5342;55.676;13.346;2022-08-04T16:22:59;5.22;;;2.90;;
10588;SDS011;5342;55.676;13.346;2022-08-04T16:25:49;3.67;;;2.80;;
10588;SDS011;5342;55.676;13.346;2022-08-04T16:31:05;3.55;;;2.90;;
10588;SDS011;5342;55.676;13.346;2022-08-04T16:33:32;5.68;;;3.33;;
10588;SDS011;5342;55.676;13.346;2022-08-04T16:35:59;6.70;;;2.83;;
10588;SDS011;5342;55.676;13.346;2022-08-04T16:38:26;3.30;;;2.60;;
10588;SDS011;5342;55.676;13.346;2022-08-04T16:40:53;4.47;;;2.65;;
10588;SDS011;5342;55.676;13.346;2022-08-04T16:43:21;4.70;;;2.87;;
10588;SDS011;5342;55.676;13.346;2022-08-04T16:45:52;4.17;;;2.53;;
10588;SDS011;5342;55.676;13.346;2022-08-04T16:48:21;4.13;;;2.50;;
10588;SDS011;5342;55.676;13.346;2022-08-04T16:53:14;5.87;;;3.27;;
10588;SDS011;5342;55.676;13.346;2022-08-04T16:55:49;4.57;;;2.83;;
10588;SDS011;5342;55.676;13.346;2022-08-04T16:58:17;4.87;;;2.90;;
10588;SDS011;5342;55.676;13.346;2022-08-04T17:00:49;3.67;;;2.77;;
10588;SDS011;5342;55.676;13.346;2022-08-04T17:03:16;5.23;;;2.83;;
10588;SDS011;5342;55.676;13.346;2022-08-04T17:05:43;4.37;;;2.90;;
10588;SDS011;5342;55.676;13.346;2022-08-04T17:08:10;4.03;;;2.70;;
10588;SDS011;5342;55.676;13.346;2022-08-04T17:10:43;7.20;;;3.07;;
10588;SDS011;5342;55.676;13.346;2022-08-04T17:16:09;4.87;;;3.07;;
10588;SDS011;5342;55.676;13.346;2022-08-04T17:18:37;4.93;;;3.37;;
10588;SDS011;5342;55.676;13.346;2022-08-04T17:21:09;4.63;;;3.03;;
10588;SDS011;5342;55.676;13.346;2022-08-04T17:23:37;3.40;;;3.17;;
10588;SDS011;5342;55.676;13.346;2022-08-04T17:26:11;4.00;;;2.83;;
10588;SDS011;5342;55.676;13.346;2022-08-04T17:28:38;8.60;;;3.20;;
10588;SDS011;5342;55.676;13.346;2022-08-04T17:31:06;3.40;;;3.20;;
10588;SDS011;5342;55.676;13.346;2022-08-04T17:33:35;3.60;;;2.67;;
10588;SDS011;5342;55.676;13.346;2022-08-04T17:36:02;3.57;;;2.90;;
10588;SDS011;5342;55.676;13.346;2022-08-04T17:38:30;3.70;;;3.33;;
10588;SDS011;5342;55.676;13.346;2022-08-04T17:41:00;6.20;;;2.77;;
10588;SDS011;5342;55.676;13.346;2022-08-04T17:43:34;4.83;;;3.07;;
10588;SDS011;5342;55.676;13.346;2022-08-04T17:48:40;6.23;;;3.23;;
10588;SDS011;5342;55.676;13.346;2022-08-04T17:51:11;5.93;;;3.47;;
10588;SDS011;5342;55.676;13.346;2022-08-04T17:53:37;3.70;;;3.23;;
10588;SDS011;5342;55.676;13.346;2022-08-04T17:56:04;3.57;;;3.13;;
10588;SDS011;5342;55.676;13.346;2022-08-04T17:58:31;5.33;;;3.83;;
10588;SDS011;5342;55.676;13.346;2022-08-04T18:00:58;4.80;;;2.97;;
10588;SDS011;5342;55.676;13.346;2022-08-04T18:03:25;3.03;;;2.77;;
10588;SDS011;5342;55.676;13.346;2022-08-04T18:05:51;3.20;;;2.90;;
10588;SDS011;5342;55.676;13.346;2022-08-04T18:08:25;3.77;;;2.67;;
10588;SDS011;5342;55.676;13.346;2022-08-04T18:10:52;12.40;;;3.33;;
10588;SDS011;5342;55.676;13.346;2022-08-04T18:13:20;5.27;;;3.50;;
10588;SDS011;5342;55.676;13.346;2022-08-04T18:15:47;9.80;;;4.20;;
10588;SDS011;5342;55.676;13.346;2022-08-04T18:18:19;9.60;;;3.90;;
10588;SDS011;5342;55.676;13.346;2022-08-04T18:20:46;3.93;;;3.53;;
10588;SDS011;5342;55.676;13.346;2022-08-04T18:23:13;10.03;;;4.00;;
10588;SDS011;5342;55.676;13.346;2022-08-04T18:25:46;5.40;;;3.70;;
10588;SDS011;5342;55.676;13.346;2022-08-04T18:28:12;11.30;;;3.73;;
10588;SDS011;5342;55.676;13.346;2022-08-04T18:30:39;9.63;;;3.97;;
10588;SDS011;5342;55.676;13.346;2022-08-04T18:33:06;5.90;;;3.83;;
10588;SDS011;5342;55.676;13.346;2022-08-04T18:35:33;5.33;;;3.73;;
10588;SDS011;5342;55.676;13.346;2022-08-04T18:38:01;7.37;;;3.70;;
10588;SDS011;5342;55.676;13.346;2022-08-04T18:40:28;5.77;;;3.90;;
10588;SDS011;5342;55.676;13.346;2022-08-04T18:42:54;3.83;;;3.43;;
10588;SDS011;5342;55.676;13.346;2022-08-04T18:45:21;4.00;;;3.33;;
10588;SDS011;5342;55.676;13.346;2022-08-04T18:47:48;5.43;;;3.23;;
10588;SDS011;5342;55.676;13.346;2022-08-04T18:50:16;7.53;;;3.90;;
10588;SDS011;5342;55.676;13.346;2022-08-04T18:52:42;3.80;;;3.50;;
10588;SDS011;5342;55.676;13.346;2022-08-04T18:55:09;7.53;;;3.90;;
10588;SDS011;5342;55.676;13.346;2022-08-04T18:57:35;6.53;;;3.47;;
10588;SDS011;5342;55.676;13.346;2022-08-04T19:00:02;4.33;;;3.67;;
10588;SDS011;5342;55.676;13.346;2022-08-04T19:02:29;7.53;;;3.60;;
10588;SDS011;5342;55.676;13.346;2022-08-04T19:04:55;4.23;;;3.60;;
10588;SDS011;5342;55.676;13.346;2022-08-04T19:07:22;4.27;;;3.57;;
10588;SDS011;5342;55.676;13.346;2022-08-04T19:09:49;3.30;;;3.00;;
10588;SDS011;5342;55.676;13.346;2022-08-04T19:12:15;3.10;;;2.80;;
10588;SDS011;5342;55.676;13.346;2022-08-04T19:14:42;5.00;;;3.10;;
10588;SDS011;5342;55.676;13.346;2022-08-04T19:17:09;4.00;;;2.60;;
10588;SDS011;5342;55.676;13.346;2022-08-04T19:19:36;7.87;;;2.77;;
10588;SDS011;5342;55.676;13.346;2022-08-04T19:22:02;2.93;;;2.73;;
10588;SDS011;5342;55.676;13.346;2022-08-04T19:24:29;6.67;;;2.90;;
10588;SDS011;5342;55.676;13.346;2022-08-04T19:26:56;4.00;;;2.90;;
10588;SDS011;5342;55.676;13.346;2022-08-04T19:29:22;3.00;;;2.70;;
10588;SDS011;5342;55.676;13.346;2022-08-04T19:31:49;5.93;;;3.07;;
10588;SDS011;5342;55.676;13.346;2022-08-04T19:34:15;5.23;;;2.90;;
10588;SDS011;5342;55.676;13.346;2022-08-04T19:36:42;5.30;;;3.03;;
10588;SDS011;5342;55.676;13.346;2022-08-04T19:39:08;4.53;;;2.70;;
10588;SDS011;5342;55.676;13.346;2022-08-04T19:41:35;3.97;;;2.77;;